Yankton, SD

10:51 AM CDT on August 19, 2017 (GMT -0500)
Gurney Municipal

Weather History for KYKN - June, 2013

Change the Weather History Date:

Tuesday, June 18, 2013

  Actual Average Record
Temperature  
Mean Temperature 71 °F -  
Max Temperature 82 °F 81 °F 96 °F (1952)
Min Temperature 60 °F 56 °F 44 °F (1976)
Cooling Degree Days 6    
Growing Degree Days 21 (Base 50)    
Moisture  
Dew Point 56 °F    
Average Humidity 60    
Maximum Humidity 88    
Minimum Humidity 37    
Precipitation  
Precipitation 0.00 in - - ()
Sea Level Pressure  
Sea Level Pressure 30.02 in    
Wind  
Wind Speed 3 mph (NNW)    
Max Wind Speed 9 mph    
Max Gust Speed -    
Visibility 10 miles    
Events      
Averages and records for this station are not official NWS values.
T = Trace of Precipitation, MM = Missing Value Source: NWS Daily Summary

Daily Weather History Graph

Daily Weather History Graph

Search for Another Location

Airport or City:

Trip Planner

Search our weather history database for the weather conditions in past years. The results will help you decide how hot, cold, wet, or windy it might be!

Date:

Astronomy

Jun. 18, 2013 Rise Set
Actual Time 5:50 AM CDT 9:11 PM CDT
Civil Twilight 5:15 AM CDT 9:46 PM CDT
Nautical Twilight 4:29 AM CDT 10:32 PM CDT
Astronomical Twilight 3:32 AM CDT 11:29 PM CDT
Moon 3:51 PM CDT (6/18) 2:05 AM CDT (6/18)
Length of Visible Light 16h 31m
Length of Day
15h 21m
Waxing Gibbous, 71% of the Moon is Illuminated
Jun 18
Waxing Gibbous
Jun 23
Full
Jun 29
Last Quarter
Jul 8
New
Jul 15
First Quarter

Hourly Weather History & Observations

Time (CDT) Temp. Heat Index Dew Point Humidity Pressure Visibility Wind Dir Wind Speed Gust Speed Precip Events Conditions
12:15 AM 64.4 °F - 55.4 °F 73% 30.04 in 10.0 mi SW 4.6 mph - N/A   Clear
12:35 AM 64.4 °F - 57.2 °F 77% 30.03 in 10.0 mi Calm Calm - N/A   Clear
12:55 AM 64.4 °F - 57.2 °F 77% 30.04 in 10.0 mi Calm Calm - N/A   Clear
1:15 AM 62.6 °F - 55.4 °F 77% 30.03 in 10.0 mi Calm Calm - N/A   Clear
1:35 AM 62.6 °F - 57.2 °F 82% 30.03 in 10.0 mi Calm Calm - N/A   Clear
1:55 AM 64.4 °F - 57.2 °F 77% 30.03 in 10.0 mi Calm Calm - N/A   Clear
2:15 AM 62.6 °F - 55.4 °F 77% 30.02 in 10.0 mi Calm Calm - N/A   Clear
2:35 AM 62.6 °F - 57.2 °F 82% 30.02 in 10.0 mi WNW 3.5 mph - N/A   Clear
2:55 AM 60.8 °F - 55.4 °F 82% 30.02 in 10.0 mi WSW 3.5 mph - N/A   Clear
3:15 AM 62.6 °F - 55.4 °F 77% 30.03 in 10.0 mi WNW 3.5 mph - N/A   Partly Cloudy
3:35 AM 62.6 °F - 55.4 °F 77% 30.04 in 10.0 mi WNW 3.5 mph - N/A   Partly Cloudy
3:55 AM 60.8 °F - 55.4 °F 82% 30.04 in 10.0 mi NW 6.9 mph - N/A   Clear
4:15 AM 60.8 °F - 55.4 °F 82% 30.04 in 10.0 mi NW 6.9 mph - N/A   Clear
4:35 AM 60.8 °F - 55.4 °F 82% 30.03 in 10.0 mi NNW 6.9 mph - N/A   Clear
4:55 AM 60.8 °F - 55.4 °F 82% 30.03 in 10.0 mi NNW 8.1 mph - N/A   Partly Cloudy
5:15 AM 60.8 °F - 55.4 °F 82% 30.04 in 10.0 mi NNW 9.2 mph - N/A   Scattered Clouds
5:35 AM 60.8 °F - 57.2 °F 88% 30.04 in 10.0 mi NNW 6.9 mph - N/A   Overcast
5:55 AM 60.8 °F - 57.2 °F 88% 30.05 in 10.0 mi NNW 8.1 mph - N/A   Mostly Cloudy
6:15 AM 60.8 °F - 55.4 °F 82% 30.04 in 10.0 mi North 8.1 mph - N/A   Partly Cloudy
6:35 AM 60.8 °F - 55.4 °F 82% 30.05 in 10.0 mi NNW 4.6 mph - N/A   Clear
6:55 AM 62.6 °F - 57.2 °F 82% 30.05 in 10.0 mi SSW 6.9 mph - N/A   Clear
7:15 AM 64.4 °F - 57.2 °F 77% 30.06 in 10.0 mi SW 8.1 mph - N/A   Clear
7:35 AM 64.4 °F - 57.2 °F 77% 30.07 in 10.0 mi Calm Calm - N/A   Clear
7:55 AM 66.2 °F - 55.4 °F 68% 30.07 in 10.0 mi Calm Calm - N/A   Clear
8:15 AM 66.2 °F - 55.4 °F 68% 30.07 in 10.0 mi Calm Calm - N/A   Clear
8:35 AM 69.8 °F - 57.2 °F 64% 30.07 in 10.0 mi Calm Calm - N/A   Clear
8:55 AM 69.8 °F - 55.4 °F 60% 30.07 in 10.0 mi Calm Calm - N/A   Clear
9:15 AM 69.8 °F - 57.2 °F 64% 30.07 in 10.0 mi Calm Calm - N/A   Clear
9:35 AM 69.8 °F - 57.2 °F 64% 30.08 in 10.0 mi Calm Calm - N/A   Clear
9:55 AM 69.8 °F - 57.2 °F 64% 30.08 in 7.0 mi SW 4.6 mph - N/A   Clear
10:15 AM 71.6 °F - 57.2 °F 60% 30.08 in 10.0 mi Calm Calm - N/A   Clear
10:35 AM 73.4 °F - 59.0 °F 61% 30.08 in 10.0 mi Calm Calm - N/A   Clear
10:55 AM 73.4 °F - 57.2 °F 57% 30.07 in 10.0 mi SSW 4.6 mph - N/A   Clear
11:15 AM 75.2 °F - 55.4 °F 50% 30.07 in 10.0 mi North 3.5 mph - N/A   Clear
11:35 AM 75.2 °F - 57.2 °F 53% 30.07 in 10.0 mi East 3.5 mph - N/A   Clear
11:55 AM 75.2 °F - 55.4 °F 50% 30.06 in 10.0 mi Calm Calm - N/A   Clear
12:15 PM 75.2 °F - 55.4 °F 50% 30.05 in 10.0 mi Calm Calm - N/A   Clear
12:35 PM 77.0 °F - 53.6 °F 44% 30.05 in 10.0 mi NNW 4.6 mph - N/A   Clear
12:55 PM 78.8 °F - 55.4 °F 44% 30.05 in 10.0 mi Calm Calm - N/A   Clear
1:15 PM 78.8 °F - 55.4 °F 44% 30.04 in 10.0 mi NE 5.8 mph - N/A   Clear
1:35 PM 78.8 °F - 53.6 °F 42% 30.04 in 10.0 mi Calm Calm - N/A   Clear
1:55 PM 78.8 °F - 55.4 °F 44% 30.04 in 10.0 mi NE 4.6 mph - N/A   Clear
2:15 PM 78.8 °F - 55.4 °F 44% 30.03 in 10.0 mi NNW 3.5 mph - N/A   Clear
2:35 PM 78.8 °F - 55.4 °F 44% 30.03 in 10.0 mi WNW 5.8 mph - N/A   Clear
2:55 PM 78.8 °F - 57.2 °F 47% 30.02 in 10.0 mi North 4.6 mph - N/A   Clear
3:15 PM 80.6 °F 80.5 °F 55.4 °F 42% 30.02 in 10.0 mi Calm Calm - N/A   Scattered Clouds
3:35 PM 80.6 °F 80.5 °F 55.4 °F 42% 30.01 in 10.0 mi North 4.6 mph - N/A   Partly Cloudy
3:55 PM 80.6 °F 80.8 °F 57.2 °F 45% 30.01 in 10.0 mi NNW 3.5 mph - N/A   Clear
4:15 PM 80.6 °F 80.5 °F 55.4 °F 42% 30.00 in 10.0 mi Calm Calm - N/A   Clear
4:35 PM 80.6 °F 80.5 °F 55.4 °F 42% 30.00 in 10.0 mi WSW 6.9 mph - N/A   Clear
4:55 PM 80.6 °F 80.3 °F 53.6 °F 39% 29.99 in 10.0 mi North 3.5 mph - N/A   Clear
5:15 PM 82.4 °F 82.0 °F 57.2 °F 42% 29.99 in 10.0 mi Calm Calm - N/A   Clear
5:35 PM 80.6 °F 80.5 °F 55.4 °F 42% 29.99 in 10.0 mi ESE 3.5 mph - N/A   Clear
5:55 PM 80.6 °F 80.5 °F 55.4 °F 42% 29.98 in 10.0 mi West 3.5 mph - N/A   Clear
6:15 PM 80.6 °F 80.5 °F 55.4 °F 42% 29.97 in 10.0 mi West 4.6 mph - N/A   Clear
6:35 PM 80.6 °F 80.3 °F 53.6 °F 39% 29.97 in 10.0 mi West 3.5 mph - N/A   Clear
6:55 PM 80.6 °F - 51.8 °F 37% 29.97 in 10.0 mi Calm Calm - N/A   Clear
7:15 PM 82.4 °F 81.4 °F 53.6 °F 37% 29.96 in 10.0 mi Calm Calm - N/A   Clear
7:35 PM 80.6 °F 80.8 °F 57.2 °F 45% 29.96 in 10.0 mi ESE 5.8 mph - N/A   Clear
7:55 PM 80.6 °F 80.8 °F 57.2 °F 45% 29.96 in 10.0 mi SE 4.6 mph - N/A   Clear
8:15 PM 78.8 °F - 55.4 °F 44% 29.96 in 10.0 mi ESE 3.5 mph - N/A   Clear
8:35 PM 78.8 °F - 53.6 °F 42% 29.96 in 10.0 mi Calm Calm - N/A   Clear
8:55 PM 78.8 °F - 55.4 °F 44% 29.96 in 10.0 mi Calm Calm - N/A   Clear
9:15 PM 77.0 °F - 53.6 °F 44% 29.96 in 9.0 mi Calm Calm - N/A   Clear
9:35 PM 73.4 °F - 53.6 °F 50% 29.97 in 10.0 mi Calm Calm - N/A   Clear
9:55 PM 73.4 °F - 53.6 °F 50% 29.97 in 10.0 mi Calm Calm - N/A   Clear
10:15 PM 69.8 °F - 59.0 °F 68% 29.98 in 10.0 mi East 4.6 mph - N/A   Scattered Clouds
10:35 PM 71.6 °F - 57.2 °F 60% 29.97 in 10.0 mi East 4.6 mph - N/A   Partly Cloudy
10:55 PM 71.6 °F - 55.4 °F 57% 29.98 in 10.0 mi East 4.6 mph - N/A   Clear
11:15 PM 71.6 °F - 57.2 °F 60% 29.98 in 10.0 mi East 4.6 mph - N/A   Partly Cloudy
11:35 PM 71.6 °F - 57.2 °F 60% 29.98 in 10.0 mi East 3.5 mph - N/A   Scattered Clouds
11:55 PM 69.8 °F - 57.2 °F 64% 29.98 in 10.0 mi ESE 4.6 mph - N/A   Partly Cloudy